sensor_id;sensor_type;location;lat;lon;timestamp;pressure;altitude;pressure_sealevel;temperature;humidity
21234;BME280;10774;42.178;26.578;2023-11-21T00:00:05;99907.16;;;6.46;100.00
21234;BME280;10774;42.178;26.578;2023-11-21T00:02:35;99901.16;;;5.64;100.00
21234;BME280;10774;42.178;26.578;2023-11-21T00:05:01;99909.16;;;6.03;100.00
21234;BME280;10774;42.178;26.578;2023-11-21T00:07:28;99899.91;;;6.12;100.00
21234;BME280;10774;42.178;26.578;2023-11-21T00:09:53;99919.31;;;5.95;100.00
21234;BME280;10774;42.178;26.578;2023-11-21T00:12:21;99900.69;;;5.75;100.00
21234;BME280;10774;42.178;26.578;2023-11-21T00:14:46;99905.06;;;5.96;100.00
21234;BME280;10774;42.178;26.578;2023-11-21T00:17:12;99916.88;;;6.10;100.00
21234;BME280;10774;42.178;26.578;2023-11-21T00:19:37;99920.63;;;5.85;100.00
21234;BME280;10774;42.178;26.578;2023-11-21T00:22:03;99922.22;;;5.89;100.00
21234;BME280;10774;42.178;26.578;2023-11-21T00:24:28;99920.91;;;5.99;100.00
21234;BME280;10774;42.178;26.578;2023-11-21T00:26:54;99916.38;;;6.01;100.00
21234;BME280;10774;42.178;26.578;2023-11-21T00:29:19;99901.47;;;5.97;100.00
21234;BME280;10774;42.178;26.578;2023-11-21T00:31:45;99913.84;;;5.98;100.00
21234;BME280;10774;42.178;26.578;2023-11-21T00:34:13;99916.31;;;6.03;100.00
21234;BME280;10774;42.178;26.578;2023-11-21T00:36:38;99906.88;;;5.96;100.00
21234;BME280;10774;42.178;26.578;2023-11-21T00:39:04;99906.06;;;5.94;100.00
21234;BME280;10774;42.178;26.578;2023-11-21T00:41:31;99921.72;;;6.01;100.00
21234;BME280;10774;42.178;26.578;2023-11-21T00:43:56;99913.44;;;6.08;100.00
21234;BME280;10774;42.178;26.578;2023-11-21T00:46:22;99930.84;;;6.15;100.00
21234;BME280;10774;42.178;26.578;2023-11-21T00:48:49;99913.97;;;5.95;100.00
21234;BME280;10774;42.178;26.578;2023-11-21T00:51:14;99936.28;;;6.13;100.00
21234;BME280;10774;42.178;26.578;2023-11-21T00:53:40;99934.63;;;6.29;100.00
21234;BME280;10774;42.178;26.578;2023-11-21T00:56:05;99932.56;;;5.97;100.00
21234;BME280;10774;42.178;26.578;2023-11-21T00:58:32;99932.50;;;5.78;100.00
21234;BME280;10774;42.178;26.578;2023-11-21T01:03:32;99916.28;;;5.43;100.00
21234;BME280;10774;42.178;26.578;2023-11-21T01:05:58;99926.78;;;5.46;100.00
21234;BME280;10774;42.178;26.578;2023-11-21T01:08:24;99927.25;;;4.50;100.00
21234;BME280;10774;42.178;26.578;2023-11-21T01:10:49;99939.25;;;4.60;100.00
21234;BME280;10774;42.178;26.578;2023-11-21T01:13:15;99937.53;;;4.59;100.00
21234;BME280;10774;42.178;26.578;2023-11-21T01:15:40;99935.78;;;4.58;100.00
21234;BME280;10774;42.178;26.578;2023-11-21T01:18:07;99941.00;;;4.61;100.00
21234;BME280;10774;42.178;26.578;2023-11-21T01:20:33;99941.75;;;4.64;100.00
21234;BME280;10774;42.178;26.578;2023-11-21T01:22:59;99936.91;;;4.74;100.00
21234;BME280;10774;42.178;26.578;2023-11-21T01:25:24;99943.81;;;4.78;100.00
21234;BME280;10774;42.178;26.578;2023-11-21T01:27:51;99930.00;;;4.70;100.00
21234;BME280;10774;42.178;26.578;2023-11-21T01:30:17;99935.16;;;4.73;100.00
21234;BME280;10774;42.178;26.578;2023-11-21T01:32:43;99940.13;;;4.82;100.00
21234;BME280;10774;42.178;26.578;2023-11-21T01:35:09;99938.94;;;4.89;100.00
21234;BME280;10774;42.178;26.578;2023-11-21T01:37:36;99924.06;;;4.85;100.00
21234;BME280;10774;42.178;26.578;2023-11-21T01:40:02;99920.41;;;4.88;100.00
21234;BME280;10774;42.178;26.578;2023-11-21T01:42:30;99912.91;;;4.97;100.00
21234;BME280;10774;42.178;26.578;2023-11-21T01:44:55;99924.16;;;4.82;100.00
21234;BME280;10774;42.178;26.578;2023-11-21T01:47:21;99927.41;;;4.90;100.00
21234;BME280;10774;42.178;26.578;2023-11-21T01:49:47;99919.81;;;4.80;100.00
21234;BME280;10774;42.178;26.578;2023-11-21T01:52:13;99918.59;;;4.88;100.00
21234;BME280;10774;42.178;26.578;2023-11-21T01:54:40;99917.59;;;5.13;100.00
21234;BME280;10774;42.178;26.578;2023-11-21T01:57:06;99924.38;;;5.20;100.00
21234;BME280;10774;42.178;26.578;2023-11-21T01:59:36;99906.34;;;4.84;100.00
21234;BME280;10774;42.178;26.578;2023-11-21T02:02:05;99925.91;;;4.83;100.00
21234;BME280;10774;42.178;26.578;2023-11-21T02:04:35;99917.59;;;4.69;100.00
21234;BME280;10774;42.178;26.578;2023-11-21T02:07:02;99912.38;;;5.10;100.00
21234;BME280;10774;42.178;26.578;2023-11-21T02:09:31;99900.09;;;5.07;100.00
21234;BME280;10774;42.178;26.578;2023-11-21T02:11:58;99911.00;;;5.21;100.00
21234;BME280;10774;42.178;26.578;2023-11-21T02:14:25;99904.81;;;5.21;100.00
21234;BME280;10774;42.178;26.578;2023-11-21T02:16:52;99902.81;;;5.26;100.00
21234;BME280;10774;42.178;26.578;2023-11-21T02:19:19;99907.06;;;5.10;100.00
21234;BME280;10774;42.178;26.578;2023-11-21T02:21:49;99908.06;;;5.07;100.00
21234;BME280;10774;42.178;26.578;2023-11-21T02:24:15;99907.31;;;5.04;100.00
21234;BME280;10774;42.178;26.578;2023-11-21T02:26:41;99892.78;;;4.70;100.00
21234;BME280;10774;42.178;26.578;2023-11-21T02:29:06;99901.03;;;4.84;100.00
21234;BME280;10774;42.178;26.578;2023-11-21T02:31:35;99887.06;;;4.57;100.00
21234;BME280;10774;42.178;26.578;2023-11-21T02:34:02;99909.34;;;4.55;100.00
21234;BME280;10774;42.178;26.578;2023-11-21T02:36:28;99911.75;;;4.61;100.00
21234;BME280;10774;42.178;26.578;2023-11-21T02:38:53;99914.34;;;4.62;100.00
21234;BME280;10774;42.178;26.578;2023-11-21T02:41:19;99906.19;;;4.67;100.00
21234;BME280;10774;42.178;26.578;2023-11-21T02:43:44;99913.41;;;4.63;100.00
21234;BME280;10774;42.178;26.578;2023-11-21T02:46:10;99901.66;;;4.69;100.00
21234;BME280;10774;42.178;26.578;2023-11-21T02:48:35;99903.16;;;4.76;100.00
21234;BME280;10774;42.178;26.578;2023-11-21T02:51:01;99909.50;;;4.72;100.00
21234;BME280;10774;42.178;26.578;2023-11-21T02:53:26;99911.13;;;4.76;100.00
21234;BME280;10774;42.178;26.578;2023-11-21T02:55:52;99896.47;;;4.22;100.00
21234;BME280;10774;42.178;26.578;2023-11-21T02:58:17;99890.28;;;4.43;100.00
21234;BME280;10774;42.178;26.578;2023-11-21T03:00:42;99897.59;;;4.60;100.00
21234;BME280;10774;42.178;26.578;2023-11-21T03:03:08;99899.44;;;4.58;100.00
21234;BME280;10774;42.178;26.578;2023-11-21T03:05:33;99900.31;;;4.59;100.00
21234;BME280;10774;42.178;26.578;2023-11-21T03:08:01;99903.63;;;4.64;100.00
21234;BME280;10774;42.178;26.578;2023-11-21T03:10:26;99882.75;;;3.62;100.00
21234;BME280;10774;42.178;26.578;2023-11-21T03:12:52;99916.94;;;4.18;100.00
21234;BME280;10774;42.178;26.578;2023-11-21T03:15:18;99919.72;;;3.92;100.00
21234;BME280;10774;42.178;26.578;2023-11-21T03:17:43;99922.31;;;3.93;100.00
21234;BME280;10774;42.178;26.578;2023-11-21T03:20:09;99930.31;;;4.17;100.00
21234;BME280;10774;42.178;26.578;2023-11-21T03:22:36;99935.13;;;4.06;100.00
21234;BME280;10774;42.178;26.578;2023-11-21T03:25:03;99936.13;;;4.03;100.00
21234;BME280;10774;42.178;26.578;2023-11-21T03:27:28;99949.22;;;3.34;100.00
21234;BME280;10774;42.178;26.578;2023-11-21T03:29:53;99953.72;;;3.06;100.00
21234;BME280;10774;42.178;26.578;2023-11-21T03:32:19;99951.97;;;3.56;100.00
21234;BME280;10774;42.178;26.578;2023-11-21T03:34:56;99948.00;;;3.93;100.00
21234;BME280;10774;42.178;26.578;2023-11-21T03:37:22;99946.66;;;4.06;100.00
21234;BME280;10774;42.178;26.578;2023-11-21T03:39:47;99925.44;;;4.05;100.00
21234;BME280;10774;42.178;26.578;2023-11-21T03:42:13;99950.44;;;4.23;100.00
21234;BME280;10774;42.178;26.578;2023-11-21T03:44:38;99941.81;;;4.39;100.00
21234;BME280;10774;42.178;26.578;2023-11-21T03:47:04;99946.09;;;4.43;100.00
21234;BME280;10774;42.178;26.578;2023-11-21T03:49:30;99939.72;;;4.47;100.00
21234;BME280;10774;42.178;26.578;2023-11-21T03:51:56;99951.34;;;4.45;100.00
21234;BME280;10774;42.178;26.578;2023-11-21T03:54:21;99941.81;;;4.39;100.00
21234;BME280;10774;42.178;26.578;2023-11-21T03:56:47;99936.16;;;4.49;100.00
21234;BME280;10774;42.178;26.578;2023-11-21T03:59:12;99945.69;;;4.76;100.00
21234;BME280;10774;42.178;26.578;2023-11-21T04:01:37;99932.84;;;4.65;100.00
21234;BME280;10774;42.178;26.578;2023-11-21T04:04:04;99942.34;;;4.49;100.00
21234;BME280;10774;42.178;26.578;2023-11-21T04:06:30;99935.09;;;4.53;100.00
21234;BME280;10774;42.178;26.578;2023-11-21T04:08:58;99945.53;;;4.35;100.00
21234;BME280;10774;42.178;26.578;2023-11-21T04:11:23;99944.47;;;4.16;100.00
21234;BME280;10774;42.178;26.578;2023-11-21T04:13:48;99950.34;;;3.77;100.00
21234;BME280;10774;42.178;26.578;2023-11-21T04:16:14;99956.06;;;3.90;100.00
21234;BME280;10774;42.178;26.578;2023-11-21T04:18:39;99943.69;;;3.90;100.00
21234;BME280;10774;42.178;26.578;2023-11-21T04:21:05;99953.66;;;3.84;100.00
21234;BME280;10774;42.178;26.578;2023-11-21T04:23:31;99928.28;;;3.25;100.00
21234;BME280;10774;42.178;26.578;2023-11-21T04:25:57;99953.41;;;3.15;100.00
21234;BME280;10774;42.178;26.578;2023-11-21T04:28:23;99962.19;;;3.42;100.00
21234;BME280;10774;42.178;26.578;2023-11-21T04:30:50;99951.19;;;3.54;100.00
21234;BME280;10774;42.178;26.578;2023-11-21T04:33:15;99959.25;;;3.76;100.00
21234;BME280;10774;42.178;26.578;2023-11-21T04:35:41;99965.31;;;3.55;100.00
21234;BME280;10774;42.178;26.578;2023-11-21T04:38:06;99927.91;;;3.37;100.00
21234;BME280;10774;42.178;26.578;2023-11-21T04:40:32;99957.44;;;3.52;100.00
21234;BME280;10774;42.178;26.578;2023-11-21T04:42:57;99950.56;;;3.46;100.00
21234;BME280;10774;42.178;26.578;2023-11-21T04:45:23;99960.66;;;3.61;100.00
21234;BME280;10774;42.178;26.578;2023-11-21T04:47:48;99958.31;;;3.52;100.00
21234;BME280;10774;42.178;26.578;2023-11-21T04:50:14;99958.47;;;3.48;100.00
21234;BME280;10774;42.178;26.578;2023-11-21T04:52:39;99957.25;;;3.31;100.00
21234;BME280;10774;42.178;26.578;2023-11-21T04:55:05;99963.25;;;3.63;100.00
21234;BME280;10774;42.178;26.578;2023-11-21T04:57:35;99969.47;;;3.62;100.00
21234;BME280;10774;42.178;26.578;2023-11-21T05:00:00;99958.75;;;3.65;100.00
21234;BME280;10774;42.178;26.578;2023-11-21T05:02:25;99969.25;;;3.93;100.00
21234;BME280;10774;42.178;26.578;2023-11-21T05:04:51;99978.78;;;3.99;100.00
21234;BME280;10774;42.178;26.578;2023-11-21T05:07:16;99973.16;;;3.83;100.00
21234;BME280;10774;42.178;26.578;2023-11-21T05:09:45;99992.22;;;3.44;100.00
21234;BME280;10774;42.178;26.578;2023-11-21T05:12:12;99980.81;;;2.87;100.00
21234;BME280;10774;42.178;26.578;2023-11-21T05:14:37;99986.03;;;2.91;100.00
21234;BME280;10774;42.178;26.578;2023-11-21T05:17:03;99976.56;;;3.10;100.00
21234;BME280;10774;42.178;26.578;2023-11-21T05:19:29;99986.44;;;3.31;100.00
21234;BME280;10774;42.178;26.578;2023-11-21T05:21:55;99981.97;;;3.33;100.00
21234;BME280;10774;42.178;26.578;2023-11-21T05:24:20;99963.72;;;3.24;100.00
21234;BME280;10774;42.178;26.578;2023-11-21T05:26:46;99997.47;;;3.46;100.00
21234;BME280;10774;42.178;26.578;2023-11-21T05:29:11;99995.16;;;3.61;100.00
21234;BME280;10774;42.178;26.578;2023-11-21T05:31:36;99995.47;;;3.77;100.00
21234;BME280;10774;42.178;26.578;2023-11-21T05:34:03;99988.69;;;3.93;100.00
21234;BME280;10774;42.178;26.578;2023-11-21T05:36:30;99982.75;;;4.10;100.00
21234;BME280;10774;42.178;26.578;2023-11-21T05:38:56;99965.25;;;3.81;100.00
21234;BME280;10774;42.178;26.578;2023-11-21T05:41:22;99965.03;;;3.87;100.00
21234;BME280;10774;42.178;26.578;2023-11-21T05:43:48;99968.28;;;3.96;100.00
21234;BME280;10774;42.178;26.578;2023-11-21T05:46:14;99966.78;;;4.35;100.00
21234;BME280;10774;42.178;26.578;2023-11-21T05:48:39;99954.44;;;4.34;100.00
21234;BME280;10774;42.178;26.578;2023-11-21T05:51:06;99984.06;;;4.69;100.00
21234;BME280;10774;42.178;26.578;2023-11-21T05:53:31;99990.28;;;4.91;100.00
21234;BME280;10774;42.178;26.578;2023-11-21T05:55:57;99994.84;;;5.10;100.00
21234;BME280;10774;42.178;26.578;2023-11-21T05:58:22;99980.94;;;5.03;100.00
21234;BME280;10774;42.178;26.578;2023-11-21T06:00:49;99993.56;;;5.20;100.00
21234;BME280;10774;42.178;26.578;2023-11-21T06:03:14;99980.94;;;5.03;100.00
21234;BME280;10774;42.178;26.578;2023-11-21T06:05:40;100010.06;;;4.84;100.00
21234;BME280;10774;42.178;26.578;2023-11-21T06:08:05;100019.56;;;4.91;100.00
21234;BME280;10774;42.178;26.578;2023-11-21T06:10:32;100021.09;;;4.75;100.00
21234;BME280;10774;42.178;26.578;2023-11-21T06:12:58;100023.94;;;4.69;100.00
21234;BME280;10774;42.178;26.578;2023-11-21T06:15:23;100022.81;;;4.53;100.00
21234;BME280;10774;42.178;26.578;2023-11-21T06:17:49;100029.06;;;4.52;100.00
21234;BME280;10774;42.178;26.578;2023-11-21T06:20:18;100025.25;;;4.35;100.00
21234;BME280;10774;42.178;26.578;2023-11-21T06:22:45;100007.56;;;3.86;100.00
21234;BME280;10774;42.178;26.578;2023-11-21T06:25:12;100018.31;;;4.31;100.00
21234;BME280;10774;42.178;26.578;2023-11-21T06:27:40;100007.88;;;4.72;100.00
21234;BME280;10774;42.178;26.578;2023-11-21T06:30:07;99995.03;;;4.83;100.00
21234;BME280;10774;42.178;26.578;2023-11-21T06:32:35;100017.25;;;4.82;100.00
21234;BME280;10774;42.178;26.578;2023-11-21T06:35:01;100013.09;;;4.75;100.00
21234;BME280;10774;42.178;26.578;2023-11-21T06:37:28;100011.69;;;4.43;100.00
21234;BME280;10774;42.178;26.578;2023-11-21T06:39:56;100005.91;;;4.77;100.00
21234;BME280;10774;42.178;26.578;2023-11-21T06:42:24;100002.47;;;4.52;100.00
21234;BME280;10774;42.178;26.578;2023-11-21T06:44:50;100000.84;;;4.71;100.00
21234;BME280;10774;42.178;26.578;2023-11-21T06:47:36;100000.53;;;4.33;100.00
21234;BME280;10774;42.178;26.578;2023-11-21T06:50:01;100003.78;;;4.63;100.00
21234;BME280;10774;42.178;26.578;2023-11-21T06:52:27;100000.06;;;5.13;100.00
21234;BME280;10774;42.178;26.578;2023-11-21T06:54:52;99989.25;;;5.38;100.00
21234;BME280;10774;42.178;26.578;2023-11-21T06:57:18;99996.56;;;5.75;100.00
21234;BME280;10774;42.178;26.578;2023-11-21T06:59:44;99998.53;;;5.92;100.00
21234;BME280;10774;42.178;26.578;2023-11-21T07:02:10;100003.00;;;6.10;100.00
21234;BME280;10774;42.178;26.578;2023-11-21T07:04:36;99987.22;;;5.85;100.00
21234;BME280;10774;42.178;26.578;2023-11-21T07:07:05;100000.31;;;5.91;100.00
21234;BME280;10774;42.178;26.578;2023-11-21T07:09:32;100009.47;;;6.05;100.00
21234;BME280;10774;42.178;26.578;2023-11-21T07:11:57;100000.66;;;5.62;100.00
21234;BME280;10774;42.178;26.578;2023-11-21T07:14:23;100000.97;;;5.96;100.00
21234;BME280;10774;42.178;26.578;2023-11-21T07:16:48;100016.34;;;5.47;100.00
21234;BME280;10774;42.178;26.578;2023-11-21T07:19:14;99999.69;;;5.64;100.00
21234;BME280;10774;42.178;26.578;2023-11-21T07:21:40;100009.22;;;6.11;100.00
21234;BME280;10774;42.178;26.578;2023-11-21T07:24:06;99998.75;;;6.45;100.00
21234;BME280;10774;42.178;26.578;2023-11-21T07:26:34;99997.31;;;6.38;100.00
21234;BME280;10774;42.178;26.578;2023-11-21T07:29:00;100005.72;;;6.48;100.00
21234;BME280;10774;42.178;26.578;2023-11-21T07:31:25;100007.34;;;6.13;100.00
21234;BME280;10774;42.178;26.578;2023-11-21T07:33:51;100005.41;;;6.55;100.00
21234;BME280;10774;42.178;26.578;2023-11-21T07:36:17;100006.97;;;6.97;100.00
21234;BME280;10774;42.178;26.578;2023-11-21T07:38:49;99997.50;;;7.09;100.00
21234;BME280;10774;42.178;26.578;2023-11-21T07:41:15;100010.97;;;7.25;100.00
21234;BME280;10774;42.178;26.578;2023-11-21T07:43:44;99995.00;;;6.87;100.00
21234;BME280;10774;42.178;26.578;2023-11-21T07:46:10;100004.34;;;7.15;100.00
21234;BME280;10774;42.178;26.578;2023-11-21T07:48:38;100006.59;;;7.41;100.00
21234;BME280;10774;42.178;26.578;2023-11-21T07:51:04;100007.31;;;7.08;100.00
21234;BME280;10774;42.178;26.578;2023-11-21T07:53:29;100006.25;;;7.30;100.00
21234;BME280;10774;42.178;26.578;2023-11-21T07:56:08;99995.91;;;7.41;100.00
21234;BME280;10774;42.178;26.578;2023-11-21T07:58:35;99997.66;;;7.77;100.00
21234;BME280;10774;42.178;26.578;2023-11-21T08:01:01;99978.16;;;7.75;100.00
21234;BME280;10774;42.178;26.578;2023-11-21T08:03:27;99984.06;;;7.81;100.00
21234;BME280;10774;42.178;26.578;2023-11-21T08:05:52;99979.56;;;7.82;100.00
21234;BME280;10774;42.178;26.578;2023-11-21T08:08:19;99977.41;;;8.06;100.00
21234;BME280;10774;42.178;26.578;2023-11-21T08:10:45;99991.63;;;8.06;100.00
21234;BME280;10774;42.178;26.578;2023-11-21T08:13:28;99986.66;;;8.33;100.00
21234;BME280;10774;42.178;26.578;2023-11-21T08:15:57;99995.44;;;8.35;100.00
21234;BME280;10774;42.178;26.578;2023-11-21T08:18:28;99977.28;;;8.42;100.00
21234;BME280;10774;42.178;26.578;2023-11-21T08:20:55;99988.09;;;8.56;100.00
21234;BME280;10774;42.178;26.578;2023-11-21T08:23:20;99975.84;;;8.35;100.00
21234;BME280;10774;42.178;26.578;2023-11-21T08:25:50;99985.69;;;8.68;100.00
21234;BME280;10774;42.178;26.578;2023-11-21T08:28:16;99990.88;;;8.71;100.00
21234;BME280;10774;42.178;26.578;2023-11-21T08:30:41;99977.38;;;8.56;100.00
21234;BME280;10774;42.178;26.578;2023-11-21T08:33:07;99987.50;;;8.67;100.00
21234;BME280;10774;42.178;26.578;2023-11-21T08:35:34;99975.16;;;8.80;100.00
21234;BME280;10774;42.178;26.578;2023-11-21T08:37:59;99985.34;;;9.05;100.00
21234;BME280;10774;42.178;26.578;2023-11-21T08:40:25;99969.47;;;9.02;100.00
21234;BME280;10774;42.178;26.578;2023-11-21T08:42:50;99980.72;;;9.39;100.00
21234;BME280;10774;42.178;26.578;2023-11-21T08:45:18;99963.59;;;9.72;100.00
21234;BME280;10774;42.178;26.578;2023-11-21T08:47:44;99952.16;;;10.12;100.00
21234;BME280;10774;42.178;26.578;2023-11-21T08:50:10;99943.50;;;9.79;100.00
21234;BME280;10774;42.178;26.578;2023-11-21T08:52:37;99958.41;;;10.41;100.00
21234;BME280;10774;42.178;26.578;2023-11-21T08:55:04;99945.22;;;10.80;100.00
21234;BME280;10774;42.178;26.578;2023-11-21T08:57:36;99939.38;;;10.87;100.00
21234;BME280;10774;42.178;26.578;2023-11-21T09:00:03;99942.75;;;10.77;100.00
21234;BME280;10774;42.178;26.578;2023-11-21T09:02:32;99944.25;;;10.81;100.00
21234;BME280;10774;42.178;26.578;2023-11-21T09:04:59;99926.78;;;10.88;100.00
21234;BME280;10774;42.178;26.578;2023-11-21T09:07:24;99926.38;;;10.94;100.00
21234;BME280;10774;42.178;26.578;2023-11-21T09:09:50;99926.97;;;11.39;100.00
21234;BME280;10774;42.178;26.578;2023-11-21T09:12:16;99924.56;;;11.61;100.00
21234;BME280;10774;42.178;26.578;2023-11-21T09:14:42;99922.19;;;11.57;100.00
21234;BME280;10774;42.178;26.578;2023-11-21T09:17:09;99922.47;;;11.92;100.00
21234;BME280;10774;42.178;26.578;2023-11-21T09:19:38;99912.41;;;12.32;100.00
21234;BME280;10774;42.178;26.578;2023-11-21T09:22:04;99913.16;;;12.47;100.00
21234;BME280;10774;42.178;26.578;2023-11-21T09:24:31;99897.97;;;12.82;100.00
21234;BME280;10774;42.178;26.578;2023-11-21T09:26:56;99914.41;;;12.67;100.00
21234;BME280;10774;42.178;26.578;2023-11-21T09:29:22;99907.72;;;12.60;100.00
21234;BME280;10774;42.178;26.578;2023-11-21T09:31:47;99902.66;;;12.92;100.00
21234;BME280;10774;42.178;26.578;2023-11-21T09:34:13;99906.38;;;12.78;100.00
21234;BME280;10774;42.178;26.578;2023-11-21T09:36:38;99885.91;;;12.75;100.00
21234;BME280;10774;42.178;26.578;2023-11-21T09:39:04;99895.28;;;12.82;100.00
21234;BME280;10774;42.178;26.578;2023-11-21T09:41:51;99877.56;;;13.15;100.00
21234;BME280;10774;42.178;26.578;2023-11-21T09:44:35;99882.94;;;13.15;100.00
21234;BME280;10774;42.178;26.578;2023-11-21T09:47:02;99880.38;;;13.49;100.00
21234;BME280;10774;42.178;26.578;2023-11-21T09:49:28;99872.88;;;13.76;100.00
21234;BME280;10774;42.178;26.578;2023-11-21T09:51:58;99877.56;;;14.19;99.67
21234;BME280;10774;42.178;26.578;2023-11-21T09:54:29;99867.13;;;14.37;99.58
21234;BME280;10774;42.178;26.578;2023-11-21T09:57:00;99849.44;;;14.33;99.81
21234;BME280;10774;42.178;26.578;2023-11-21T09:59:30;99854.47;;;14.71;100.00
21234;BME280;10774;42.178;26.578;2023-11-21T10:01:56;99856.09;;;14.95;97.94
21234;BME280;10774;42.178;26.578;2023-11-21T10:04:23;99848.00;;;14.95;97.30
21234;BME280;10774;42.178;26.578;2023-11-21T10:06:50;99847.38;;;15.23;96.00
21234;BME280;10774;42.178;26.578;2023-11-21T10:09:16;99837.94;;;15.38;94.51
21234;BME280;10774;42.178;26.578;2023-11-21T10:11:42;99814.66;;;15.47;94.98
21234;BME280;10774;42.178;26.578;2023-11-21T10:14:12;99811.53;;;15.63;95.58
21234;BME280;10774;42.178;26.578;2023-11-21T10:16:40;99813.28;;;15.53;98.72
21234;BME280;10774;42.178;26.578;2023-11-21T10:19:09;99810.81;;;15.50;99.03
21234;BME280;10774;42.178;26.578;2023-11-21T10:21:35;99808.13;;;15.50;99.61
21234;BME280;10774;42.178;26.578;2023-11-21T10:24:01;99804.38;;;15.62;100.00
21234;BME280;10774;42.178;26.578;2023-11-21T10:26:28;99793.28;;;15.44;100.00
21234;BME280;10774;42.178;26.578;2023-11-21T10:28:58;99808.59;;;15.76;100.00
21234;BME280;10774;42.178;26.578;2023-11-21T10:31:26;99802.97;;;15.88;99.36
21234;BME280;10774;42.178;26.578;2023-11-21T10:33:52;99800.13;;;15.90;97.46
21234;BME280;10774;42.178;26.578;2023-11-21T10:36:27;99792.34;;;15.76;96.84
21234;BME280;10774;42.178;26.578;2023-11-21T10:38:53;99790.44;;;15.87;97.07
21234;BME280;10774;42.178;26.578;2023-11-21T10:41:20;99773.81;;;15.71;97.08
21234;BME280;10774;42.178;26.578;2023-11-21T10:43:46;99791.25;;;15.78;96.92
21234;BME280;10774;42.178;26.578;2023-11-21T10:46:11;99768.16;;;15.74;99.00
21234;BME280;10774;42.178;26.578;2023-11-21T10:48:37;99778.22;;;15.93;100.00
21234;BME280;10774;42.178;26.578;2023-11-21T10:51:07;99773.06;;;15.90;100.00
21234;BME280;10774;42.178;26.578;2023-11-21T10:53:39;99781.53;;;16.06;100.00
21234;BME280;10774;42.178;26.578;2023-11-21T10:56:08;99763.38;;;15.97;100.00
21234;BME280;10774;42.178;26.578;2023-11-21T10:58:43;99770.38;;;16.00;100.00
21234;BME280;10774;42.178;26.578;2023-11-21T11:01:09;99759.97;;;15.95;100.00
21234;BME280;10774;42.178;26.578;2023-11-21T11:03:39;99763.56;;;16.05;100.00
21234;BME280;10774;42.178;26.578;2023-11-21T11:06:07;99749.53;;;15.90;100.00
21234;BME280;10774;42.178;26.578;2023-11-21T11:08:40;99756.25;;;15.96;100.00
21234;BME280;10774;42.178;26.578;2023-11-21T11:11:06;99755.25;;;15.97;100.00
21234;BME280;10774;42.178;26.578;2023-11-21T11:13:31;99766.28;;;16.05;100.00
21234;BME280;10774;42.178;26.578;2023-11-21T11:16:01;99756.91;;;16.09;100.00
21234;BME280;10774;42.178;26.578;2023-11-21T11:18:32;99759.22;;;16.33;100.00
21234;BME280;10774;42.178;26.578;2023-11-21T11:21:13;99760.66;;;16.37;100.00
21234;BME280;10774;42.178;26.578;2023-11-21T11:27:06;99766.63;;;16.31;100.00
21234;BME280;10774;42.178;26.578;2023-11-21T11:36:00;99740.31;;;16.03;100.00
21234;BME280;10774;42.178;26.578;2023-11-21T11:38:31;99741.88;;;15.95;100.00
21234;BME280;10774;42.178;26.578;2023-11-21T11:41:01;99731.34;;;15.92;100.00
21234;BME280;10774;42.178;26.578;2023-11-21T11:43:29;99741.03;;;15.95;100.00
21234;BME280;10774;42.178;26.578;2023-11-21T11:45:57;99734.31;;;15.89;100.00
21234;BME280;10774;42.178;26.578;2023-11-21T11:48:24;99737.47;;;15.94;100.00
21234;BME280;10774;42.178;26.578;2023-11-21T11:51:14;99733.06;;;16.13;100.00
21234;BME280;10774;42.178;26.578;2023-11-21T11:53:43;99720.66;;;16.01;100.00
21234;BME280;10774;42.178;26.578;2023-11-21T11:56:26;99723.53;;;16.09;100.00
21234;BME280;10774;42.178;26.578;2023-11-21T11:58:53;99713.72;;;16.17;100.00
21234;BME280;10774;42.178;26.578;2023-11-21T12:01:19;99698.19;;;16.19;100.00
21234;BME280;10774;42.178;26.578;2023-11-21T12:06:41;99709.34;;;16.55;100.00
21234;BME280;10774;42.178;26.578;2023-11-21T12:09:17;99701.66;;;16.51;100.00
21234;BME280;10774;42.178;26.578;2023-11-21T12:11:43;99703.63;;;16.39;100.00
21234;BME280;10774;42.178;26.578;2023-11-21T12:14:09;99692.19;;;16.16;100.00
21234;BME280;10774;42.178;26.578;2023-11-21T12:16:35;99694.75;;;15.98;100.00
21234;BME280;10774;42.178;26.578;2023-11-21T12:19:00;99705.84;;;15.95;100.00
21234;BME280;10774;42.178;26.578;2023-11-21T12:21:26;99707.31;;;15.68;100.00
21234;BME280;10774;42.178;26.578;2023-11-21T12:23:52;99693.09;;;15.55;100.00
21234;BME280;10774;42.178;26.578;2023-11-21T12:26:18;99699.44;;;15.65;100.00
21234;BME280;10774;42.178;26.578;2023-11-21T12:28:43;99681.97;;;15.49;100.00
21234;BME280;10774;42.178;26.578;2023-11-21T12:31:09;99695.59;;;15.37;100.00
21234;BME280;10774;42.178;26.578;2023-11-21T12:33:36;99686.88;;;15.24;100.00
21234;BME280;10774;42.178;26.578;2023-11-21T12:36:01;99685.97;;;15.14;100.00
21234;BME280;10774;42.178;26.578;2023-11-21T12:38:36;99696.22;;;15.20;100.00
21234;BME280;10774;42.178;26.578;2023-11-21T12:41:01;99680.72;;;15.22;100.00
21234;BME280;10774;42.178;26.578;2023-11-21T12:43:28;99695.00;;;15.34;100.00
21234;BME280;10774;42.178;26.578;2023-11-21T12:46:07;99689.28;;;15.27;100.00
21234;BME280;10774;42.178;26.578;2023-11-21T12:48:40;99679.81;;;15.12;100.00
21234;BME280;10774;42.178;26.578;2023-11-21T12:51:10;99682.97;;;15.17;100.00
21234;BME280;10774;42.178;26.578;2023-11-21T12:53:44;99693.53;;;15.20;100.00
21234;BME280;10774;42.178;26.578;2023-11-21T12:56:12;99686.91;;;15.13;100.00
21234;BME280;10774;42.178;26.578;2023-11-21T12:58:39;99660.91;;;14.91;100.00